sensor_id;sensor_type;location;lat;lon;timestamp;P1;durP1;ratioP1;P2;durP2;ratioP2
48375;SDS011;34178;50.904;11.560;2023-06-10T00:00:34;11.85;;;7.55;;
48375;SDS011;34178;50.904;11.560;2023-06-10T00:03:00;9.60;;;6.90;;
48375;SDS011;34178;50.904;11.560;2023-06-10T00:05:26;11.48;;;6.80;;
48375;SDS011;34178;50.904;11.560;2023-06-10T00:07:55;10.77;;;7.18;;
48375;SDS011;34178;50.904;11.560;2023-06-10T00:10:21;11.30;;;7.25;;
48375;SDS011;34178;50.904;11.560;2023-06-10T00:12:47;10.60;;;6.63;;
48375;SDS011;34178;50.904;11.560;2023-06-10T00:15:13;11.25;;;7.68;;
48375;SDS011;34178;50.904;11.560;2023-06-10T00:17:38;10.80;;;7.10;;
48375;SDS011;34178;50.904;11.560;2023-06-10T00:20:06;13.00;;;8.18;;
48375;SDS011;34178;50.904;11.560;2023-06-10T00:22:34;12.30;;;7.43;;
48375;SDS011;34178;50.904;11.560;2023-06-10T00:25:00;12.93;;;8.13;;
48375;SDS011;34178;50.904;11.560;2023-06-10T00:27:25;11.23;;;7.63;;
48375;SDS011;34178;50.904;11.560;2023-06-10T00:29:56;10.20;;;7.00;;
48375;SDS011;34178;50.904;11.560;2023-06-10T00:32:22;10.13;;;7.28;;
48375;SDS011;34178;50.904;11.560;2023-06-10T00:34:48;13.60;;;8.20;;
48375;SDS011;34178;50.904;11.560;2023-06-10T00:37:13;10.88;;;7.55;;
48375;SDS011;34178;50.904;11.560;2023-06-10T00:39:39;11.07;;;7.68;;
48375;SDS011;34178;50.904;11.560;2023-06-10T00:42:05;12.30;;;7.35;;
48375;SDS011;34178;50.904;11.560;2023-06-10T00:44:32;12.63;;;7.97;;
48375;SDS011;34178;50.904;11.560;2023-06-10T00:46:57;10.35;;;7.20;;
48375;SDS011;34178;50.904;11.560;2023-06-10T00:49:23;12.88;;;8.02;;
48375;SDS011;34178;50.904;11.560;2023-06-10T00:51:50;11.02;;;7.55;;
48375;SDS011;34178;50.904;11.560;2023-06-10T00:54:17;10.85;;;7.40;;
48375;SDS011;34178;50.904;11.560;2023-06-10T00:56:43;13.10;;;7.80;;
48375;SDS011;34178;50.904;11.560;2023-06-10T00:59:09;15.60;;;7.70;;
48375;SDS011;34178;50.904;11.560;2023-06-10T01:01:35;12.88;;;7.45;;
48375;SDS011;34178;50.904;11.560;2023-06-10T01:04:02;13.85;;;8.57;;
48375;SDS011;34178;50.904;11.560;2023-06-10T01:09:33;13.35;;;7.72;;
48375;SDS011;34178;50.904;11.560;2023-06-10T01:12:09;10.35;;;6.97;;
48375;SDS011;34178;50.904;11.560;2023-06-10T01:14:51;11.82;;;7.75;;
48375;SDS011;34178;50.904;11.560;2023-06-10T01:17:18;12.35;;;8.80;;
48375;SDS011;34178;50.904;11.560;2023-06-10T01:19:44;11.07;;;8.30;;
48375;SDS011;34178;50.904;11.560;2023-06-10T01:22:17;13.27;;;8.30;;
48375;SDS011;34178;50.904;11.560;2023-06-10T01:24:43;11.45;;;8.27;;
48375;SDS011;34178;50.904;11.560;2023-06-10T01:27:11;14.20;;;8.20;;
48375;SDS011;34178;50.904;11.560;2023-06-10T01:29:43;13.98;;;8.85;;
48375;SDS011;34178;50.904;11.560;2023-06-10T01:34:47;15.18;;;8.57;;
48375;SDS011;34178;50.904;11.560;2023-06-10T01:37:16;12.23;;;7.85;;
48375;SDS011;34178;50.904;11.560;2023-06-10T01:39:45;12.43;;;7.75;;
48375;SDS011;34178;50.904;11.560;2023-06-10T01:42:12;12.48;;;7.30;;
48375;SDS011;34178;50.904;11.560;2023-06-10T01:44:40;11.15;;;7.47;;
48375;SDS011;34178;50.904;11.560;2023-06-10T01:47:07;11.27;;;7.65;;
48375;SDS011;34178;50.904;11.560;2023-06-10T01:49:33;12.98;;;8.27;;
48375;SDS011;34178;50.904;11.560;2023-06-10T01:51:59;13.55;;;8.32;;
48375;SDS011;34178;50.904;11.560;2023-06-10T01:54:25;13.57;;;8.40;;
48375;SDS011;34178;50.904;11.560;2023-06-10T01:56:51;12.70;;;7.45;;
48375;SDS011;34178;50.904;11.560;2023-06-10T01:59:17;14.70;;;8.77;;
48375;SDS011;34178;50.904;11.560;2023-06-10T02:01:42;16.00;;;7.72;;
48375;SDS011;34178;50.904;11.560;2023-06-10T02:04:08;13.45;;;8.15;;
48375;SDS011;34178;50.904;11.560;2023-06-10T02:06:33;11.25;;;7.45;;
48375;SDS011;34178;50.904;11.560;2023-06-10T02:09:00;15.07;;;7.45;;
48375;SDS011;34178;50.904;11.560;2023-06-10T02:11:26;11.70;;;7.43;;
48375;SDS011;34178;50.904;11.560;2023-06-10T02:13:52;12.82;;;7.90;;
48375;SDS011;34178;50.904;11.560;2023-06-10T02:16:18;13.82;;;6.85;;
48375;SDS011;34178;50.904;11.560;2023-06-10T02:18:44;16.17;;;8.23;;
48375;SDS011;34178;50.904;11.560;2023-06-10T02:21:09;15.45;;;8.45;;
48375;SDS011;34178;50.904;11.560;2023-06-10T02:23:35;13.55;;;8.02;;
48375;SDS011;34178;50.904;11.560;2023-06-10T02:26:01;12.05;;;7.90;;
48375;SDS011;34178;50.904;11.560;2023-06-10T02:28:27;13.73;;;7.70;;
48375;SDS011;34178;50.904;11.560;2023-06-10T02:30:53;14.55;;;8.10;;
48375;SDS011;34178;50.904;11.560;2023-06-10T02:33:18;16.17;;;8.20;;
48375;SDS011;34178;50.904;11.560;2023-06-10T02:35:44;13.18;;;7.53;;
48375;SDS011;34178;50.904;11.560;2023-06-10T02:38:10;11.90;;;7.25;;
48375;SDS011;34178;50.904;11.560;2023-06-10T02:40:36;15.45;;;8.00;;
48375;SDS011;34178;50.904;11.560;2023-06-10T02:43:02;13.32;;;7.90;;
48375;SDS011;34178;50.904;11.560;2023-06-10T02:45:27;13.20;;;6.97;;
48375;SDS011;34178;50.904;11.560;2023-06-10T02:47:53;14.35;;;7.47;;
48375;SDS011;34178;50.904;11.560;2023-06-10T02:50:19;14.93;;;8.60;;
48375;SDS011;34178;50.904;11.560;2023-06-10T02:52:44;14.00;;;7.68;;
48375;SDS011;34178;50.904;11.560;2023-06-10T02:55:10;14.40;;;8.15;;
48375;SDS011;34178;50.904;11.560;2023-06-10T02:57:36;12.75;;;8.38;;
48375;SDS011;34178;50.904;11.560;2023-06-10T03:00:02;12.23;;;7.60;;
48375;SDS011;34178;50.904;11.560;2023-06-10T03:02:34;12.02;;;7.35;;
48375;SDS011;34178;50.904;11.560;2023-06-10T03:05:01;11.68;;;7.35;;
48375;SDS011;34178;50.904;11.560;2023-06-10T03:07:27;13.05;;;8.02;;
48375;SDS011;34178;50.904;11.560;2023-06-10T03:09:53;12.43;;;7.47;;
48375;SDS011;34178;50.904;11.560;2023-06-10T03:12:19;13.07;;;7.68;;
48375;SDS011;34178;50.904;11.560;2023-06-10T03:14:44;10.60;;;7.63;;
48375;SDS011;34178;50.904;11.560;2023-06-10T03:17:10;11.02;;;7.22;;
48375;SDS011;34178;50.904;11.560;2023-06-10T03:19:36;11.82;;;6.93;;
48375;SDS011;34178;50.904;11.560;2023-06-10T03:22:10;10.88;;;7.10;;
48375;SDS011;34178;50.904;11.560;2023-06-10T03:24:37;13.32;;;7.93;;
48375;SDS011;34178;50.904;11.560;2023-06-10T03:27:06;15.32;;;8.30;;
48375;SDS011;34178;50.904;11.560;2023-06-10T03:29:32;14.10;;;7.50;;
48375;SDS011;34178;50.904;11.560;2023-06-10T03:31:58;13.63;;;7.50;;
48375;SDS011;34178;50.904;11.560;2023-06-10T03:34:24;13.32;;;7.95;;
48375;SDS011;34178;50.904;11.560;2023-06-10T03:36:49;12.48;;;7.40;;
48375;SDS011;34178;50.904;11.560;2023-06-10T03:39:15;13.32;;;7.50;;
48375;SDS011;34178;50.904;11.560;2023-06-10T03:41:41;14.27;;;7.63;;
48375;SDS011;34178;50.904;11.560;2023-06-10T03:44:06;14.68;;;7.72;;
48375;SDS011;34178;50.904;11.560;2023-06-10T03:46:32;12.38;;;7.50;;
48375;SDS011;34178;50.904;11.560;2023-06-10T03:48:58;13.18;;;7.15;;
48375;SDS011;34178;50.904;11.560;2023-06-10T03:51:25;11.27;;;7.28;;
48375;SDS011;34178;50.904;11.560;2023-06-10T03:53:52;13.70;;;7.82;;
48375;SDS011;34178;50.904;11.560;2023-06-10T03:56:17;13.55;;;6.80;;
48375;SDS011;34178;50.904;11.560;2023-06-10T03:58:43;10.02;;;6.50;;
48375;SDS011;34178;50.904;11.560;2023-06-10T04:01:09;12.38;;;6.93;;
48375;SDS011;34178;50.904;11.560;2023-06-10T04:03:35;11.77;;;6.82;;
48375;SDS011;34178;50.904;11.560;2023-06-10T04:06:01;15.45;;;7.00;;
48375;SDS011;34178;50.904;11.560;2023-06-10T04:08:27;11.75;;;6.82;;
48375;SDS011;34178;50.904;11.560;2023-06-10T04:10:53;11.60;;;7.05;;
48375;SDS011;34178;50.904;11.560;2023-06-10T04:13:19;14.10;;;6.05;;
48375;SDS011;34178;50.904;11.560;2023-06-10T04:15:45;12.93;;;6.93;;
48375;SDS011;34178;50.904;11.560;2023-06-10T04:18:11;11.05;;;6.20;;
48375;SDS011;34178;50.904;11.560;2023-06-10T04:20:36;14.85;;;7.30;;
48375;SDS011;34178;50.904;11.560;2023-06-10T04:23:03;10.93;;;7.03;;
48375;SDS011;34178;50.904;11.560;2023-06-10T04:25:28;11.98;;;6.47;;
48375;SDS011;34178;50.904;11.560;2023-06-10T04:27:54;15.60;;;6.70;;
48375;SDS011;34178;50.904;11.560;2023-06-10T04:30:20;17.38;;;6.70;;
48375;SDS011;34178;50.904;11.560;2023-06-10T04:32:47;14.25;;;6.50;;
48375;SDS011;34178;50.904;11.560;2023-06-10T04:35:12;12.95;;;6.80;;
48375;SDS011;34178;50.904;11.560;2023-06-10T04:37:39;15.50;;;7.05;;
48375;SDS011;34178;50.904;11.560;2023-06-10T04:40:06;11.93;;;6.20;;
48375;SDS011;34178;50.904;11.560;2023-06-10T04:42:33;12.35;;;6.70;;
48375;SDS011;34178;50.904;11.560;2023-06-10T04:44:59;12.95;;;5.82;;
48375;SDS011;34178;50.904;11.560;2023-06-10T04:47:25;14.85;;;6.50;;
48375;SDS011;34178;50.904;11.560;2023-06-10T04:49:51;12.68;;;6.28;;
48375;SDS011;34178;50.904;11.560;2023-06-10T04:52:17;12.93;;;6.72;;
48375;SDS011;34178;50.904;11.560;2023-06-10T04:54:43;12.52;;;5.90;;
48375;SDS011;34178;50.904;11.560;2023-06-10T04:57:09;13.88;;;7.18;;
48375;SDS011;34178;50.904;11.560;2023-06-10T04:59:36;15.55;;;6.70;;
48375;SDS011;34178;50.904;11.560;2023-06-10T05:02:03;17.45;;;7.55;;
48375;SDS011;34178;50.904;11.560;2023-06-10T05:04:30;12.63;;;6.78;;
48375;SDS011;34178;50.904;11.560;2023-06-10T05:06:55;16.45;;;6.80;;
48375;SDS011;34178;50.904;11.560;2023-06-10T05:09:21;17.73;;;7.22;;
48375;SDS011;34178;50.904;11.560;2023-06-10T05:11:47;11.38;;;6.65;;
48375;SDS011;34178;50.904;11.560;2023-06-10T05:14:12;11.98;;;6.70;;
48375;SDS011;34178;50.904;11.560;2023-06-10T05:16:38;15.55;;;7.00;;
48375;SDS011;34178;50.904;11.560;2023-06-10T05:19:04;13.88;;;7.20;;
48375;SDS011;34178;50.904;11.560;2023-06-10T05:21:30;13.55;;;7.05;;
48375;SDS011;34178;50.904;11.560;2023-06-10T05:23:55;13.18;;;7.20;;
48375;SDS011;34178;50.904;11.560;2023-06-10T05:26:21;13.75;;;7.10;;
48375;SDS011;34178;50.904;11.560;2023-06-10T05:28:47;12.43;;;7.18;;
48375;SDS011;34178;50.904;11.560;2023-06-10T05:31:13;16.77;;;8.23;;
48375;SDS011;34178;50.904;11.560;2023-06-10T05:33:39;18.25;;;7.15;;
48375;SDS011;34178;50.904;11.560;2023-06-10T05:36:04;14.98;;;8.18;;
48375;SDS011;34178;50.904;11.560;2023-06-10T05:38:30;13.60;;;7.20;;
48375;SDS011;34178;50.904;11.560;2023-06-10T05:40:56;16.17;;;7.72;;
48375;SDS011;34178;50.904;11.560;2023-06-10T05:43:23;18.40;;;7.88;;
48375;SDS011;34178;50.904;11.560;2023-06-10T05:45:49;15.90;;;7.90;;
48375;SDS011;34178;50.904;11.560;2023-06-10T05:48:15;14.80;;;7.93;;
48375;SDS011;34178;50.904;11.560;2023-06-10T05:50:40;13.93;;;8.18;;
48375;SDS011;34178;50.904;11.560;2023-06-10T05:53:07;12.93;;;7.20;;
48375;SDS011;34178;50.904;11.560;2023-06-10T05:55:40;12.38;;;7.90;;
48375;SDS011;34178;50.904;11.560;2023-06-10T05:58:09;13.88;;;7.57;;
48375;SDS011;34178;50.904;11.560;2023-06-10T06:00:34;15.73;;;8.38;;
48375;SDS011;34178;50.904;11.560;2023-06-10T06:03:00;13.63;;;7.80;;
48375;SDS011;34178;50.904;11.560;2023-06-10T06:05:26;19.48;;;8.05;;
48375;SDS011;34178;50.904;11.560;2023-06-10T06:07:51;16.42;;;8.55;;
48375;SDS011;34178;50.904;11.560;2023-06-10T06:10:18;14.43;;;7.95;;
48375;SDS011;34178;50.904;11.560;2023-06-10T06:12:44;15.32;;;8.52;;
48375;SDS011;34178;50.904;11.560;2023-06-10T06:15:10;17.00;;;7.82;;
48375;SDS011;34178;50.904;11.560;2023-06-10T06:17:36;16.42;;;8.25;;
48375;SDS011;34178;50.904;11.560;2023-06-10T06:20:02;17.02;;;8.77;;
48375;SDS011;34178;50.904;11.560;2023-06-10T06:22:28;14.40;;;7.97;;
48375;SDS011;34178;50.904;11.560;2023-06-10T06:24:55;13.98;;;8.52;;
48375;SDS011;34178;50.904;11.560;2023-06-10T06:27:20;17.48;;;8.00;;
48375;SDS011;34178;50.904;11.560;2023-06-10T06:29:46;14.85;;;8.43;;
48375;SDS011;34178;50.904;11.560;2023-06-10T06:32:12;14.57;;;8.20;;
48375;SDS011;34178;50.904;11.560;2023-06-10T06:34:38;16.48;;;8.68;;
48375;SDS011;34178;50.904;11.560;2023-06-10T06:37:03;14.93;;;8.05;;
48375;SDS011;34178;50.904;11.560;2023-06-10T06:39:29;13.55;;;7.88;;
48375;SDS011;34178;50.904;11.560;2023-06-10T06:41:55;13.52;;;8.93;;
48375;SDS011;34178;50.904;11.560;2023-06-10T06:44:21;15.93;;;8.02;;
48375;SDS011;34178;50.904;11.560;2023-06-10T06:46:46;12.40;;;8.23;;
48375;SDS011;34178;50.904;11.560;2023-06-10T06:49:12;14.02;;;8.00;;
48375;SDS011;34178;50.904;11.560;2023-06-10T06:51:38;16.08;;;8.90;;
48375;SDS011;34178;50.904;11.560;2023-06-10T06:54:03;14.02;;;7.95;;
48375;SDS011;34178;50.904;11.560;2023-06-10T06:56:30;13.70;;;8.32;;
48375;SDS011;34178;50.904;11.560;2023-06-10T06:58:56;16.08;;;8.75;;
48375;SDS011;34178;50.904;11.560;2023-06-10T07:01:22;13.77;;;8.45;;
48375;SDS011;34178;50.904;11.560;2023-06-10T07:03:48;13.32;;;7.80;;
48375;SDS011;34178;50.904;11.560;2023-06-10T07:06:13;15.15;;;9.00;;
48375;SDS011;34178;50.904;11.560;2023-06-10T07:08:39;15.00;;;8.30;;
48375;SDS011;34178;50.904;11.560;2023-06-10T07:11:05;14.77;;;7.90;;
48375;SDS011;34178;50.904;11.560;2023-06-10T07:13:30;16.88;;;7.75;;
48375;SDS011;34178;50.904;11.560;2023-06-10T07:15:56;15.38;;;8.65;;
48375;SDS011;34178;50.904;11.560;2023-06-10T07:18:22;13.23;;;7.93;;
48375;SDS011;34178;50.904;11.560;2023-06-10T07:20:47;17.92;;;8.35;;
48375;SDS011;34178;50.904;11.560;2023-06-10T07:23:13;15.80;;;8.93;;
48375;SDS011;34178;50.904;11.560;2023-06-10T07:25:40;19.40;;;9.30;;
48375;SDS011;34178;50.904;11.560;2023-06-10T07:28:06;15.10;;;8.25;;
48375;SDS011;34178;50.904;11.560;2023-06-10T07:30:32;14.00;;;8.23;;
48375;SDS011;34178;50.904;11.560;2023-06-10T07:32:58;16.42;;;8.82;;
48375;SDS011;34178;50.904;11.560;2023-06-10T07:35:24;13.35;;;8.18;;
48375;SDS011;34178;50.904;11.560;2023-06-10T07:37:49;16.38;;;8.65;;
48375;SDS011;34178;50.904;11.560;2023-06-10T07:40:15;12.52;;;7.72;;
48375;SDS011;34178;50.904;11.560;2023-06-10T07:42:41;16.15;;;8.82;;
48375;SDS011;34178;50.904;11.560;2023-06-10T07:45:08;15.93;;;9.30;;
48375;SDS011;34178;50.904;11.560;2023-06-10T07:47:34;14.32;;;8.60;;
48375;SDS011;34178;50.904;11.560;2023-06-10T07:50:00;16.20;;;8.07;;
48375;SDS011;34178;50.904;11.560;2023-06-10T07:52:25;17.42;;;8.70;;
48375;SDS011;34178;50.904;11.560;2023-06-10T07:54:53;15.57;;;9.63;;
48375;SDS011;34178;50.904;11.560;2023-06-10T07:57:19;13.85;;;8.60;;
48375;SDS011;34178;50.904;11.560;2023-06-10T07:59:45;15.10;;;9.60;;
48375;SDS011;34178;50.904;11.560;2023-06-10T08:02:10;14.48;;;9.00;;
48375;SDS011;34178;50.904;11.560;2023-06-10T08:04:36;13.55;;;8.20;;
48375;SDS011;34178;50.904;11.560;2023-06-10T08:07:02;15.85;;;9.48;;
48375;SDS011;34178;50.904;11.560;2023-06-10T08:09:28;16.17;;;9.73;;
48375;SDS011;34178;50.904;11.560;2023-06-10T08:11:54;14.98;;;9.35;;
48375;SDS011;34178;50.904;11.560;2023-06-10T08:14:20;16.90;;;8.65;;
48375;SDS011;34178;50.904;11.560;2023-06-10T08:16:46;16.65;;;9.23;;
48375;SDS011;34178;50.904;11.560;2023-06-10T08:19:12;13.82;;;9.65;;
48375;SDS011;34178;50.904;11.560;2023-06-10T08:21:38;18.13;;;9.65;;
48375;SDS011;34178;50.904;11.560;2023-06-10T08:24:05;12.10;;;8.60;;
48375;SDS011;34178;50.904;11.560;2023-06-10T08:26:31;13.45;;;9.95;;
48375;SDS011;34178;50.904;11.560;2023-06-10T08:28:57;15.95;;;9.50;;
48375;SDS011;34178;50.904;11.560;2023-06-10T08:31:22;15.43;;;9.20;;
48375;SDS011;34178;50.904;11.560;2023-06-10T08:33:48;16.35;;;8.90;;
48375;SDS011;34178;50.904;11.560;2023-06-10T08:36:14;14.20;;;9.20;;
48375;SDS011;34178;50.904;11.560;2023-06-10T08:38:40;16.17;;;9.27;;
48375;SDS011;34178;50.904;11.560;2023-06-10T08:41:06;13.52;;;8.55;;
48375;SDS011;34178;50.904;11.560;2023-06-10T08:43:41;16.08;;;9.23;;
48375;SDS011;34178;50.904;11.560;2023-06-10T08:46:09;18.98;;;9.80;;
48375;SDS011;34178;50.904;11.560;2023-06-10T08:48:38;13.57;;;8.95;;
48375;SDS011;34178;50.904;11.560;2023-06-10T08:51:07;14.40;;;9.25;;
48375;SDS011;34178;50.904;11.560;2023-06-10T08:53:36;12.93;;;9.15;;
48375;SDS011;34178;50.904;11.560;2023-06-10T08:56:06;15.63;;;9.88;;
48375;SDS011;34178;50.904;11.560;2023-06-10T08:58:32;13.70;;;9.57;;
48375;SDS011;34178;50.904;11.560;2023-06-10T09:01:00;18.17;;;9.75;;
48375;SDS011;34178;50.904;11.560;2023-06-10T09:03:26;14.55;;;9.45;;
48375;SDS011;34178;50.904;11.560;2023-06-10T09:05:53;13.90;;;9.50;;
48375;SDS011;34178;50.904;11.560;2023-06-10T09:08:21;14.63;;;9.38;;
48375;SDS011;34178;50.904;11.560;2023-06-10T09:10:47;13.68;;;8.88;;
48375;SDS011;34178;50.904;11.560;2023-06-10T09:13:14;16.10;;;9.45;;
48375;SDS011;34178;50.904;11.560;2023-06-10T09:15:41;13.40;;;8.68;;
48375;SDS011;34178;50.904;11.560;2023-06-10T09:18:06;15.73;;;9.20;;
48375;SDS011;34178;50.904;11.560;2023-06-10T09:20:32;13.48;;;9.05;;
48375;SDS011;34178;50.904;11.560;2023-06-10T09:22:59;14.63;;;9.32;;
48375;SDS011;34178;50.904;11.560;2023-06-10T09:25:38;14.82;;;10.30;;
48375;SDS011;34178;50.904;11.560;2023-06-10T09:28:04;14.30;;;9.40;;
48375;SDS011;34178;50.904;11.560;2023-06-10T09:30:37;17.55;;;9.77;;
48375;SDS011;34178;50.904;11.560;2023-06-10T09:33:09;13.55;;;9.48;;
48375;SDS011;34178;50.904;11.560;2023-06-10T09:35:37;12.32;;;8.40;;
48375;SDS011;34178;50.904;11.560;2023-06-10T09:38:10;10.60;;;8.18;;
48375;SDS011;34178;50.904;11.560;2023-06-10T09:40:57;13.05;;;9.13;;
